Time;durP1;ratioP1;P1;durP2;ratioP2;P2;SDS_P1;SDS_P2;PMS_P1;PMS_P2;Temp;Humidity;BMP_temperature;BMP_pressure;BME280_temperature;BME280_humidity;BME280_pressure;Samples;Min_cycle;Max_cycle;Signal;HPM_P1;HPM_P2
2022/06/13 00:01:11;;;;;;;1.77;0.90;;;13.80;99.90;;;;;;5115887;27;20258;-71
2022/06/13 00:03:38;;;;;;;2.72;1.00;;;13.80;99.90;;;;;;5109855;27;20043;-71
2022/06/13 00:06:03;;;;;;;1.75;1.00;;;13.80;99.90;;;;;;5129040;27;20039;-71
2022/06/13 00:08:29;;;;;;;2.95;1.10;;;13.80;99.90;;;;;;5076349;28;20036;-71
2022/06/13 00:10:55;;;;;;;5.65;1.65;;;13.80;99.90;;;;;;5125830;27;20043;-71
2022/06/13 00:13:20;;;;;;;1.92;1.08;;;13.90;99.90;;;;;;5128927;27;20039;-71
2022/06/13 00:15:46;;;;;;;2.80;1.20;;;13.90;99.90;;;;;;5113466;27;20051;-71
2022/06/13 00:18:11;;;;;;;3.08;1.00;;;13.90;99.90;;;;;;5113282;27;20055;-71
2022/06/13 00:20:37;;;;;;;4.85;1.40;;;13.90;99.90;;;;;;5092227;28;20049;-71
2022/06/13 00:23:03;;;;;;;4.18;0.98;;;13.90;99.90;;;;;;5092121;27;20417;-71
2022/06/13 00:25:29;;;;;;;3.20;1.23;;;13.90;99.90;;;;;;5093975;27;20062;-71
2022/06/13 00:27:55;;;;;;;3.15;1.25;;;13.90;99.90;;;;;;5111453;27;20668;-71
2022/06/13 00:30:21;;;;;;;3.22;1.42;;;13.90;99.90;;;;;;5082895;28;20036;-71
2022/06/13 00:32:47;;;;;;;3.97;1.10;;;14.00;99.90;;;;;;5100475;28;20036;-71
2022/06/13 00:35:13;;;;;;;3.38;1.45;;;14.00;99.90;;;;;;5122838;27;20039;-71
2022/06/13 00:37:38;;;;;;;4.25;1.20;;;14.00;99.90;;;;;;5126453;27;20422;-71
2022/06/13 00:40:05;;;;;;;4.25;1.60;;;14.00;99.90;;;;;;5078134;28;20065;-71
2022/06/13 00:42:31;;;;;;;4.00;1.50;;;13.90;99.90;;;;;;5114699;27;20047;-71
2022/06/13 00:45:02;;;;;;;4.43;1.08;;;13.90;99.90;;;;;;5120964;27;20139;-71
2022/06/13 00:47:28;;;;;;;2.47;1.25;;;13.80;99.90;;;;;;5105688;27;20040;-71
2022/06/13 00:49:54;;;;;;;2.05;0.90;;;13.80;99.90;;;;;;5099282;27;20031;-71
2022/06/13 00:52:45;;;;;;;9.25;1.17;;;13.80;99.90;;;;;;5128316;27;20035;-71
2022/06/13 00:55:22;;;;;;;3.85;1.52;;;13.80;99.90;;;;;;5110434;27;20047;-71
2022/06/13 00:57:48;;;;;;;5.13;1.10;;;13.70;99.90;;;;;;5098212;27;20039;-71
2022/06/13 01:00:16;;;;;;;1.85;0.98;;;13.70;99.90;;;;;;5120944;27;20035;-71
2022/06/13 01:02:46;;;;;;;2.63;1.00;;;13.70;99.90;;;;;;5112466;27;20040;-71
2022/06/13 01:05:16;;;;;;;3.72;1.02;;;13.80;99.90;;;;;;5121316;27;20046;-71
2022/06/13 01:07:42;;;;;;;4.43;1.15;;;13.70;99.90;;;;;;5083283;27;20054;-71
2022/06/13 01:12:54;;;;;;;6.15;1.25;;;13.70;99.90;;;;;;5097007;27;20040;-71
2022/06/13 01:15:33;;;;;;;6.53;1.10;;;13.70;99.90;;;;;;5118860;27;20119;-71
2022/06/13 01:18:18;;;;;;;2.63;1.13;;;13.70;99.90;;;;;;5100517;28;20423;-71
2022/06/13 01:21:06;;;;;;;3.05;1.30;;;13.70;99.90;;;;;;5109856;28;20070;-71
2022/06/13 01:24:20;;;;;;;3.72;1.23;;;13.70;99.90;;;;;;5113274;27;20048;-71
2022/06/13 01:26:58;;;;;;;4.78;1.20;;;13.70;99.90;;;;;;5112809;27;20086;-71
2022/06/13 01:29:28;;;;;;;2.50;1.17;;;13.70;99.90;;;;;;5109255;27;20036;-71
2022/06/13 01:32:11;;;;;;;2.05;1.02;;;13.70;99.90;;;;;;5092626;28;20039;-71
2022/06/13 01:34:57;;;;;;;2.85;1.05;;;13.70;99.90;;;;;;5120436;27;20134;-71
2022/06/13 01:37:46;;;;;;;1.73;0.93;;;13.60;99.90;;;;;;5073505;28;20073;-71
2022/06/13 01:40:25;;;;;;;2.88;1.20;;;13.60;99.90;;;;;;5089283;28;20036;-71
2022/06/13 01:43:12;;;;;;;4.07;1.17;;;13.60;99.90;;;;;;5093232;27;20054;-71
2022/06/13 01:46:10;;;;;;;3.40;1.10;;;13.60;99.90;;;;;;5107363;27;20123;-71
2022/06/13 01:49:15;;;;;;;2.13;1.15;;;13.60;99.90;;;;;;5123666;27;20076;-71
2022/06/13 01:51:47;;;;;;;2.53;1.15;;;13.60;99.90;;;;;;5117306;27;20438;-71
2022/06/13 01:54:43;;;;;;;2.42;1.05;;;13.60;99.90;;;;;;5108066;27;20050;-71
2022/06/13 01:57:31;;;;;;;3.83;1.40;;;13.60;99.90;;;;;;5114212;27;20051;-71
2022/06/13 02:00:08;;;;;;;2.78;1.40;;;13.60;99.90;;;;;;5107288;27;20428;-71
2022/06/13 02:02:38;;;;;;;2.53;1.05;;;13.50;99.90;;;;;;5089174;28;20052;-71
2022/06/13 02:05:12;;;;;;;3.17;0.98;;;13.50;99.90;;;;;;5100106;27;20593;-71
2022/06/13 02:07:43;;;;;;;4.60;1.42;;;13.50;99.90;;;;;;5107508;28;20130;-71
2022/06/13 02:10:34;;;;;;;2.38;1.17;;;13.50;99.90;;;;;;5106860;27;20042;-71
2022/06/13 02:13:15;;;;;;;2.33;1.30;;;13.50;99.90;;;;;;5127697;27;20035;-71
2022/06/13 02:15:45;;;;;;;6.47;1.60;;;13.50;99.90;;;;;;5088996;27;20066;-71
2022/06/13 02:19:10;;;;;;;7.93;1.30;;;13.50;99.90;;;;;;5100804;27;20051;-71
2022/06/13 02:22:15;;;;;;;2.53;1.40;;;13.50;99.90;;;;;;5024735;28;20109;-71
2022/06/13 02:24:50;;;;;;;4.70;1.17;;;13.50;99.90;;;;;;5091203;28;20417;-71
2022/06/13 02:27:18;;;;;;;2.72;1.55;;;13.50;99.90;;;;;;5095661;28;20042;-71
2022/06/13 02:29:49;;;;;;;2.13;1.20;;;13.50;99.90;;;;;;5117487;27;20047;-71
2022/06/13 02:32:46;;;;;;;4.40;1.45;;;13.40;99.90;;;;;;5120592;27;20408;-71
2022/06/13 02:35:17;;;;;;;4.80;1.35;;;13.40;99.90;;;;;;5086719;28;20557;-71
2022/06/13 02:37:49;;;;;;;3.70;1.58;;;13.40;99.90;;;;;;5112554;27;20047;-71
2022/06/13 02:40:29;;;;;;;4.32;1.75;;;13.40;99.90;;;;;;5120102;27;20035;-71
2022/06/13 02:43:14;;;;;;;2.30;1.25;;;13.40;99.90;;;;;;5090625;28;20408;-71
2022/06/13 02:46:06;;;;;;;2.15;1.10;;;13.40;99.90;;;;;;5121425;27;20114;-71
2022/06/13 02:48:59;;;;;;;2.50;1.55;;;13.40;99.90;;;;;;5096963;27;20035;-71
2022/06/13 02:51:41;;;;;;;3.67;1.85;;;13.40;99.90;;;;;;5099885;27;20521;-71
2022/06/13 02:54:18;;;;;;;4.45;1.80;;;13.30;99.90;;;;;;5088865;28;20261;-71
2022/06/13 02:59:52;;;;;;;3.70;1.48;;;13.30;99.90;;;;;;5102553;28;20110;-71
2022/06/13 03:02:27;;;;;;;5.00;1.55;;;13.30;99.90;;;;;;5087476;28;20059;-71
2022/06/13 03:05:23;;;;;;;2.85;1.45;;;13.40;99.90;;;;;;5102677;27;20455;-71
2022/06/13 03:07:56;;;;;;;;;;;13.40;99.90;;;;;;5093066;28;20134;-71
2022/06/13 03:10:35;;;;;;;6.65;2.28;;;13.40;99.90;;;;;;5088362;28;19916;-71
2022/06/13 03:13:18;;;;;;;6.95;1.95;;;13.40;99.90;;;;;;5096703;28;20099;-71
2022/06/13 03:15:50;;;;;;;2.50;1.40;;;13.40;99.90;;;;;;5085754;28;20043;-71
2022/06/13 03:18:23;;;;;;;2.83;1.48;;;13.40;99.90;;;;;;5106873;28;20051;-71
2022/06/13 03:21:09;;;;;;;4.90;1.80;;;13.40;99.90;;;;;;5112262;28;20443;-71
2022/06/13 03:23:51;;;;;;;7.07;1.67;;;13.40;99.90;;;;;;5128409;27;20095;-71
2022/06/13 03:26:21;;;;;;;2.70;1.15;;;13.40;99.90;;;;;;5089320;28;20039;-71
2022/06/13 03:29:03;;;;;;;4.32;2.42;;;13.40;99.90;;;;;;5115639;28;20048;-71
2022/06/13 03:31:33;;;;;;;4.15;1.70;;;13.40;99.90;;;;;;5111413;27;20035;-71
2022/06/13 03:34:03;;;;;;;4.68;1.55;;;13.50;99.90;;;;;;5090165;28;20036;-71
2022/06/13 03:37:00;;;;;;;6.05;1.50;;;13.50;99.90;;;;;;5121726;27;20055;-71
2022/06/13 03:39:33;;;;;;;6.15;1.98;;;13.50;99.90;;;;;;5122551;27;20046;-71
2022/06/13 03:42:08;;;;;;;1.95;1.08;;;13.40;99.90;;;;;;5132131;27;20026;-71
2022/06/13 03:44:45;;;;;;;7.88;2.25;;;13.40;99.90;;;;;;5124983;27;20043;-71
2022/06/13 03:47:31;;;;;;;2.88;1.52;;;13.50;99.90;;;;;;5115699;27;20031;-71
2022/06/13 03:50:11;;;;;;;6.53;2.35;;;13.50;99.90;;;;;;5117684;27;20039;-71
2022/06/13 03:52:42;;;;;;;2.42;1.42;;;13.50;99.90;;;;;;5125192;27;20050;-71
2022/06/13 03:55:22;;;;;;;3.92;1.70;;;13.50;99.90;;;;;;5115929;27;20083;-71
2022/06/13 03:57:58;;;;;;;3.45;1.33;;;13.50;99.90;;;;;;5110133;28;20051;-71
2022/06/13 04:00:41;;;;;;;7.10;1.70;;;13.60;99.90;;;;;;5104865;27;20125;-71
2022/06/13 04:03:08;;;;;;;4.15;1.73;;;13.60;99.90;;;;;;5105980;27;20048;-71
2022/06/13 04:05:54;;;;;;;4.75;1.50;;;13.60;99.90;;;;;;5121908;27;20039;-71
2022/06/13 04:08:19;;;;;;;4.28;1.65;;;13.60;99.90;;;;;;5113614;27;20031;-71
2022/06/13 04:11:05;;;;;;;2.78;1.33;;;13.70;99.90;;;;;;5122459;27;20035;-71
2022/06/13 04:13:50;;;;;;;4.57;1.73;;;13.70;99.90;;;;;;5085492;27;20076;-71
2022/06/13 04:16:46;;;;;;;2.47;0.98;;;13.60;99.90;;;;;;5092878;28;20046;-71
2022/06/13 04:19:32;;;;;;;3.03;1.33;;;13.70;99.90;;;;;;5112107;27;20047;-71
2022/06/13 04:22:01;;;;;;;2.80;1.50;;;13.70;99.90;;;;;;5099407;28;20047;-71
2022/06/13 04:25:04;;;;;;;2.72;1.45;;;13.70;99.90;;;;;;5116735;27;20058;-71
2022/06/13 04:27:55;;;;;;;3.55;1.83;;;13.70;99.90;;;;;;5090694;28;20050;-71
2022/06/13 04:30:24;;;;;;;2.60;1.27;;;13.70;99.90;;;;;;5105756;28;20046;-71
2022/06/13 04:32:55;;;;;;;2.63;1.10;;;13.70;99.90;;;;;;5089747;28;20127;-71
2022/06/13 04:35:21;;;;;;;3.55;1.35;;;13.70;99.90;;;;;;5106630;27;20070;-71
2022/06/13 04:37:49;;;;;;;3.42;1.02;;;13.70;99.90;;;;;;5100412;28;20458;-71
2022/06/13 04:40:21;;;;;;;3.70;1.40;;;13.80;99.90;;;;;;5110660;27;20533;-71
2022/06/13 04:42:49;;;;;;;3.22;1.55;;;13.80;99.90;;;;;;5109860;28;20047;-71
2022/06/13 04:45:45;;;;;;;4.22;1.15;;;13.90;99.90;;;;;;5112278;27;20489;-71
2022/06/13 04:48:11;;;;;;;2.42;1.10;;;13.90;99.90;;;;;;5114022;27;20036;-71
2022/06/13 04:50:41;;;;;;;3.25;0.93;;;14.00;99.90;;;;;;5080007;28;21037;-71
2022/06/13 04:53:15;;;;;;;2.05;0.70;;;14.10;99.90;;;;;;5109329;28;20054;-71
2022/06/13 04:55:44;;;;;;;2.88;1.25;;;14.10;99.90;;;;;;5119618;27;20073;-71
2022/06/13 04:58:34;;;;;;;1.50;0.80;;;14.10;99.90;;;;;;5123502;27;20042;-71
2022/06/13 05:01:19;;;;;;;1.50;0.60;;;14.20;99.90;;;;;;5106153;28;20044;-71
2022/06/13 05:03:47;;;;;;;1.30;0.70;;;14.30;99.90;;;;;;5106640;27;20108;-71
2022/06/13 05:06:38;;;;;;;1.98;0.80;;;14.30;99.90;;;;;;5130678;27;20300;-71
2022/06/13 05:09:13;;;;;;;2.72;0.90;;;14.30;99.90;;;;;;5111355;27;20035;-71
2022/06/13 05:11:54;;;;;;;1.63;0.63;;;14.30;99.90;;;;;;5118539;27;20515;-71
2022/06/13 05:14:26;;;;;;;4.18;0.95;;;14.40;99.90;;;;;;5125641;27;20078;-71
2022/06/13 05:17:29;;;;;;;2.70;0.57;;;14.40;99.90;;;;;;5117548;27;20139;-71
2022/06/13 05:20:13;;;;;;;2.15;0.82;;;14.50;99.90;;;;;;5104645;27;20074;-71
2022/06/13 05:22:56;;;;;;;1.58;0.50;;;14.50;99.90;;;;;;5117363;27;20052;-71
2022/06/13 05:25:45;;;;;;;1.45;0.57;;;14.50;99.90;;;;;;5106535;28;20489;-71
2022/06/13 05:28:16;;;;;;;2.08;0.95;;;14.50;99.90;;;;;;5118249;27;20035;-71
2022/06/13 05:30:44;;;;;;;0.75;0.50;;;14.50;99.90;;;;;;5128957;27;20123;-71
2022/06/13 05:33:15;;;;;;;1.42;1.00;;;14.50;99.90;;;;;;5111056;27;20036;-71
2022/06/13 05:35:43;;;;;;;2.40;1.00;;;14.50;99.90;;;;;;5088706;28;20112;-71
2022/06/13 05:38:14;;;;;;;0.60;0.30;;;14.40;99.90;;;;;;5072255;28;20044;-71
2022/06/13 05:40:40;;;;;;;5.38;0.90;;;14.50;99.90;;;;;;5127451;27;20050;-71
2022/06/13 05:43:07;;;;;;;2.58;1.17;;;14.50;99.90;;;;;;5105762;27;20065;-71
2022/06/13 05:45:33;;;;;;;1.33;0.60;;;14.60;99.90;;;;;;5110591;27;20044;-71
2022/06/13 05:47:59;;;;;;;0.75;0.47;;;14.60;99.90;;;;;;5118555;27;20087;-71
2022/06/13 05:50:33;;;;;;;4.05;0.98;;;14.60;99.90;;;;;;5087820;28;20032;-71
2022/06/13 05:52:59;;;;;;;3.75;0.73;;;14.60;99.90;;;;;;5072339;28;20396;-71
2022/06/13 05:55:25;;;;;;;1.85;0.68;;;14.70;99.90;;;;;;5099118;28;20036;-71
2022/06/13 05:57:51;;;;;;;3.58;0.73;;;14.70;99.90;;;;;;5091358;28;20039;-71
2022/06/13 06:00:24;;;;;;;1.90;0.63;;;14.60;99.90;;;;;;5112253;27;20096;-71
2022/06/13 06:02:49;;;;;;;3.15;0.80;;;14.60;99.90;;;;;;5109661;28;20396;-71
2022/06/13 06:05:16;;;;;;;0.95;0.40;;;14.50;99.90;;;;;;5109320;28;20497;-71
2022/06/13 06:07:42;;;;;;;1.10;0.40;;;14.50;99.90;;;;;;5108470;28;20400;-71
2022/06/13 06:10:13;;;;;;;2.58;0.70;;;14.50;99.90;;;;;;5108687;27;20126;-71
2022/06/13 06:12:39;;;;;;;0.50;0.30;;;14.50;99.90;;;;;;5087522;28;20048;-71
2022/06/13 06:15:05;;;;;;;1.85;0.55;;;14.50;99.90;;;;;;5101546;27;20142;-71
2022/06/13 06:17:30;;;;;;;1.83;0.55;;;14.50;99.90;;;;;;5105330;27;20536;-71
2022/06/13 06:19:56;;;;;;;0.77;0.40;;;14.60;99.90;;;;;;5116189;27;20122;-71
2022/06/13 06:22:21;;;;;;;3.03;0.50;;;14.60;99.90;;;;;;5086749;28;20054;-71
2022/06/13 06:24:47;;;;;;;0.75;0.38;;;14.70;99.90;;;;;;5087755;28;20071;-71
2022/06/13 06:27:14;;;;;;;1.95;0.50;;;14.80;99.90;;;;;;5095759;27;20493;-71
2022/06/13 06:29:40;;;;;;;1.23;0.43;;;15.00;99.90;;;;;;5117032;27;20027;-71
2022/06/13 06:32:06;;;;;;;0.52;0.22;;;15.20;99.90;;;;;;5120645;27;20082;-73
2022/06/13 06:34:31;;;;;;;2.67;0.63;;;15.30;99.90;;;;;;5102937;28;20035;-71
2022/06/13 06:36:57;;;;;;;3.38;0.50;;;15.60;99.90;;;;;;5111576;28;20030;-71
2022/06/13 06:39:23;;;;;;;1.17;0.30;;;15.90;99.90;;;;;;5112852;27;20501;-71
2022/06/13 06:41:48;;;;;;;2.25;0.32;;;16.00;99.90;;;;;;5116621;27;20567;-71
2022/06/13 06:44:14;;;;;;;2.08;0.30;;;15.80;99.90;;;;;;5104205;27;20036;-71
2022/06/13 06:46:40;;;;;;;1.00;0.43;;;15.60;99.90;;;;;;5107224;27;20040;-71
2022/06/13 06:49:06;;;;;;;0.32;0.17;;;15.40;99.90;;;;;;5104248;27;20160;-71
2022/06/13 06:51:31;;;;;;;1.52;0.45;;;15.30;99.90;;;;;;5090497;28;20055;-71
2022/06/13 07:02:11;;;;;;;0.70;0.28;;;14.70;99.90;;;;;;5095604;27;20126;-71
2022/06/13 07:04:36;;;;;;;0.63;0.28;;;14.40;99.90;;;;;;5099863;27;20412;-72
2022/06/13 07:07:03;;;;;;;0.45;0.22;;;14.20;99.90;;;;;;5106193;28;20043;-72
2022/06/13 07:09:28;;;;;;;0.90;0.40;;;14.00;99.90;;;;;;5119591;27;20036;-73
2022/06/13 07:11:54;;;;;;;0.45;0.25;;;13.90;99.90;;;;;;5102554;28;20063;-72
2022/06/13 07:14:30;;;;;;;0.80;0.20;;;13.80;99.90;;;;;;5086708;28;20040;-72
2022/06/13 07:17:01;;;;;;;1.70;0.40;;;13.80;99.90;;;;;;5097240;28;20055;-72
2022/06/13 07:19:27;;;;;;;0.35;0.13;;;13.80;99.90;;;;;;5103628;28;20048;-71
2022/06/13 07:21:53;;;;;;;0.25;0.20;;;13.80;99.90;;;;;;5100513;28;20046;-72
2022/06/13 07:24:20;;;;;;;0.50;0.25;;;13.90;99.90;;;;;;5091586;28;20095;-72
2022/06/13 07:26:46;;;;;;;1.67;0.30;;;13.90;99.90;;;;;;5119084;28;20160;-71
2022/06/13 07:29:12;;;;;;;0.82;0.30;;;14.00;99.90;;;;;;5106850;28;20067;-71
2022/06/13 07:31:38;;;;;;;0.57;0.17;;;14.00;99.90;;;;;;5089684;28;20119;-71
2022/06/13 07:34:04;;;;;;;1.02;0.40;;;14.00;99.90;;;;;;5100141;28;20104;-72
2022/06/13 07:36:30;;;;;;;1.25;0.30;;;14.00;99.90;;;;;;5104642;28;20462;-71
2022/06/13 07:38:55;;;;;;;0.50;0.30;;;14.20;99.90;;;;;;5083570;28;20063;-71
2022/06/13 07:41:23;;;;;;;0.50;0.25;;;14.30;99.90;;;;;;5076415;28;20085;-71
2022/06/13 07:43:51;;;;;;;2.38;0.57;;;14.40;99.90;;;;;;5103490;28;20435;-71
2022/06/13 07:46:17;;;;;;;2.22;0.43;;;14.50;99.90;;;;;;5105038;28;20036;-72
2022/06/13 07:48:47;;;;;;;0.50;0.30;;;14.60;99.90;;;;;;5086930;28;20360;-72
2022/06/13 07:51:13;;;;;;;0.68;0.38;;;14.70;99.90;;;;;;5096565;28;20027;-71
2022/06/13 07:53:39;;;;;;;1.00;0.38;;;14.80;99.90;;;;;;5094562;28;20508;-71
2022/06/13 07:56:04;;;;;;;1.52;0.35;;;14.90;99.90;;;;;;5102709;28;20588;-71
2022/06/13 07:58:36;;;;;;;0.95;0.57;;;14.90;99.90;;;;;;5116136;28;20043;-71
2022/06/13 08:01:04;;;;;;;1.65;0.50;;;15.00;99.90;;;;;;5084025;28;20039;-71
2022/06/13 08:03:31;;;;;;;1.27;0.70;;;15.10;99.90;;;;;;5114761;28;20032;-71
2022/06/13 08:05:58;;;;;;;1.15;0.30;;;15.30;99.90;;;;;;5091803;28;20061;-71
2022/06/13 08:08:24;;;;;;;0.50;0.40;;;15.40;99.90;;;;;;5086570;28;20032;-71
2022/06/13 08:10:52;;;;;;;0.90;0.50;;;15.40;99.90;;;;;;5100640;28;20031;-71
2022/06/13 08:13:20;;;;;;;2.58;0.50;;;15.40;99.90;;;;;;5108735;27;20121;-71
2022/06/13 08:15:45;;;;;;;1.75;0.93;;;15.30;99.90;;;;;;5093158;27;20432;-71
2022/06/13 08:18:13;;;;;;;1.25;0.50;;;15.40;99.90;;;;;;5093534;27;20113;-71
2022/06/13 08:20:41;;;;;;;0.82;0.30;;;15.40;99.90;;;;;;5100080;27;20043;-71
2022/06/13 08:23:09;;;;;;;1.42;0.60;;;15.50;99.90;;;;;;5083317;28;20478;-71
2022/06/13 08:25:36;;;;;;;0.98;0.40;;;15.40;99.90;;;;;;5089128;27;20062;-72
2022/06/13 08:28:03;;;;;;;0.60;0.38;;;15.40;99.90;;;;;;5089092;27;20027;-72
2022/06/13 08:30:40;;;;;;;0.82;0.50;;;15.30;99.90;;;;;;5085285;27;20606;-72
2022/06/13 08:33:06;;;;;;;1.17;0.47;;;15.30;99.90;;;;;;5113758;27;20028;-72
2022/06/13 08:35:31;;;;;;;1.08;0.45;;;15.40;99.90;;;;;;5090616;27;20080;-72
2022/06/13 08:37:57;;;;;;;0.90;0.40;;;15.50;99.90;;;;;;5098296;27;20042;-72
2022/06/13 08:40:27;;;;;;;1.27;0.40;;;15.40;99.90;;;;;;5107321;27;20175;-72
2022/06/13 08:43:24;;;;;;;0.93;0.32;;;15.50;99.90;;;;;;5118205;27;20112;-72
2022/06/13 08:45:58;;;;;;;;;;;15.40;99.90;;;;;;5082356;27;20400;-72
2022/06/13 08:48:36;;;;;;;1.38;0.38;;;15.50;99.90;;;;;;5112682;27;20336;-72
2022/06/13 08:51:13;;;;;;;1.10;0.20;;;15.60;99.90;;;;;;5100999;27;20043;-72
2022/06/13 08:54:05;;;;;;;0.98;0.40;;;15.70;99.90;;;;;;5102324;27;20424;-72
2022/06/13 08:56:35;;;;;;;1.05;0.30;;;15.80;99.90;;;;;;5112009;27;20043;-72
2022/06/13 08:59:23;;;;;;;0.88;0.30;;;16.00;99.90;;;;;;5088280;27;20039;-72
2022/06/13 09:02:05;;;;;;;1.13;0.28;;;15.90;99.50;;;;;;5100617;27;20066;-72
2022/06/13 09:04:40;;;;;;;0.57;0.40;;;15.80;99.80;;;;;;5110601;27;20047;-71
2022/06/13 09:07:27;;;;;;;;;;;15.80;99.90;;;;;;5088176;27;20031;-72
2022/06/13 09:10:15;;;;;;;0.52;0.25;;;15.80;97.00;;;;;;5092663;27;19927;-72
2022/06/13 09:12:55;;;;;;;2.50;0.38;;;15.60;98.20;;;;;;5083620;27;20052;-72
2022/06/13 09:15:32;;;;;;;0.45;0.30;;;15.60;99.80;;;;;;5094751;27;20521;-72
2022/06/13 09:18:23;;;;;;;2.17;0.40;;;15.60;99.90;;;;;;5088257;27;20060;-71
2022/06/13 09:21:05;;;;;;;0.65;0.40;;;15.60;99.90;;;;;;5104931;27;20506;-71
2022/06/13 09:24:24;;;;;;;2.90;0.47;;;15.80;98.40;;;;;;5110344;27;20044;-71
2022/06/13 09:26:53;;;;;;;1.00;0.30;;;16.00;96.20;;;;;;5093773;27;20526;-72
2022/06/13 09:29:34;;;;;;;0.65;0.40;;;16.10;95.70;;;;;;5107635;27;20428;-72
2022/06/13 09:32:08;;;;;;;0.95;0.25;;;16.00;94.60;;;;;;5089620;27;20508;-67
2022/06/13 09:34:54;;;;;;;1.35;0.22;;;16.00;97.10;;;;;;5104664;27;22095;-66
2022/06/13 09:37:33;;;;;;;0.43;0.25;;;16.00;98.00;;;;;;5106910;27;20108;-71
2022/06/13 09:39:58;;;;;;;0.68;0.20;;;16.10;96.40;;;;;;5103730;27;20054;-71
2022/06/13 09:42:42;;;;;;;0.45;0.30;;;16.00;97.60;;;;;;5107549;27;20043;-71
2022/06/13 09:45:39;;;;;;;0.28;0.22;;;16.00;97.50;;;;;;5112834;27;20127;-71
2022/06/13 09:48:23;;;;;;;1.15;0.25;;;16.00;94.00;;;;;;5108269;27;20039;-71
2022/06/13 09:50:59;;;;;;;0.73;0.20;;;16.10;96.80;;;;;;5115291;27;20449;-71
2022/06/13 09:53:46;;;;;;;0.50;0.30;;;16.20;96.80;;;;;;5104357;27;20494;-71
2022/06/13 09:56:27;;;;;;;1.40;0.50;;;16.10;93.90;;;;;;5108007;27;20038;-71
2022/06/13 09:59:10;;;;;;;3.25;0.40;;;16.10;95.50;;;;;;5092967;27;20063;-71
2022/06/13 10:02:08;;;;;;;1.75;0.20;;;16.00;94.30;;;;;;5109360;27;20036;-71
2022/06/13 10:04:50;;;;;;;1.23;0.40;;;16.00;94.80;;;;;;5089672;27;20045;-71
2022/06/13 10:07:21;;;;;;;0.73;0.30;;;16.00;95.60;;;;;;5102132;27;20040;-71
2022/06/13 10:10:05;;;;;;;0.13;0.10;;;16.00;96.10;;;;;;5093923;28;20038;-71
2022/06/13 10:12:43;;;;;;;1.88;0.30;;;16.00;95.90;;;;;;5097057;27;20031;-71
2022/06/13 10:15:18;;;;;;;1.13;0.20;;;16.00;97.50;;;;;;5080877;28;20035;-71
2022/06/13 10:18:05;;;;;;;0.95;0.35;;;16.00;96.90;;;;;;5110422;27;20493;-71
2022/06/13 10:20:38;;;;;;;1.25;0.47;;;16.10;95.10;;;;;;5104257;27;20043;-71
2022/06/13 10:23:29;;;;;;;0.35;0.35;;;16.20;96.60;;;;;;5095520;27;20068;-71
2022/06/13 10:26:30;;;;;;;1.58;0.40;;;16.20;94.50;;;;;;5097414;28;20043;-71
2022/06/13 10:29:15;;;;;;;2.67;0.40;;;16.10;95.90;;;;;;5118288;27;20044;-71
2022/06/13 10:31:52;;;;;;;1.08;0.38;;;16.00;96.30;;;;;;5083558;28;20074;-71
2022/06/13 10:34:27;;;;;;;2.38;0.50;;;16.00;97.10;;;;;;5093987;27;20134;-71
2022/06/13 10:37:13;;;;;;;3.75;0.40;;;15.90;96.70;;;;;;5108242;28;20039;-71
2022/06/13 10:39:40;;;;;;;0.52;0.20;;;16.00;97.70;;;;;;5091990;27;20062;-71
2022/06/13 10:42:18;;;;;;;0.98;0.20;;;16.10;97.50;;;;;;5104161;27;20048;-71
2022/06/13 10:44:44;;;;;;;1.45;0.30;;;16.00;92.90;;;;;;5087151;28;20042;-71
2022/06/13 10:47:28;;;;;;;0.63;0.20;;;16.00;95.40;;;;;;5105023;27;20502;-71
2022/06/13 10:50:07;;;;;;;0.63;0.20;;;15.90;92.80;;;;;;5097850;27;20035;-71
2022/06/13 10:52:39;;;;;;;0.35;0.25;;;15.70;93.20;;;;;;5085190;28;20044;-74
2022/06/13 10:55:08;;;;;;;0.57;0.20;;;15.60;94.50;;;;;;5109652;27;20035;-72
2022/06/13 10:57:48;;;;;;;1.60;0.50;;;15.40;94.10;;;;;;5095497;27;20587;-72
2022/06/13 11:00:23;;;;;;;1.40;0.15;;;15.30;95.00;;;;;;5094161;27;20035;-71
2022/06/13 11:02:51;;;;;;;3.63;0.52;;;15.10;95.70;;;;;;5085441;28;20139;-72
2022/06/13 11:05:23;;;;;;;0.80;0.22;;;15.10;96.30;;;;;;5081623;27;20023;-72
2022/06/13 11:08:00;;;;;;;0.28;0.20;;;15.10;96.60;;;;;;5098103;27;20464;-72
2022/06/13 11:10:33;;;;;;;0.40;0.20;;;15.10;96.30;;;;;;5099605;27;20036;-72
2022/06/13 11:13:02;;;;;;;2.40;0.30;;;15.20;97.10;;;;;;5092365;27;20040;-72
2022/06/13 11:24:02;;;;;;;1.10;0.40;;;15.60;98.00;;;;;;5102472;28;20067;-72
2022/06/13 11:29:22;;;;;;;0.90;0.28;;;15.60;97.80;;;;;;5097229;28;20044;-72
2022/06/13 11:31:53;;;;;;;1.65;0.20;;;15.80;97.20;;;;;;5095475;28;20052;-72
2022/06/13 11:34:32;;;;;;;1.17;0.25;;;16.00;95.50;;;;;;5094158;28;20123;-72
2022/06/13 11:37:17;;;;;;;0.52;0.30;;;16.10;93.80;;;;;;5106272;28;20040;-72
2022/06/13 11:39:46;;;;;;;0.55;0.40;;;16.20;90.60;;;;;;5098752;28;20453;-72
2022/06/13 11:42:23;;;;;;;0.45;0.22;;;16.30;93.40;;;;;;5082778;28;20162;-72
2022/06/13 11:44:56;;;;;;;3.13;0.40;;;16.40;92.80;;;;;;5105093;28;20067;-72
2022/06/13 11:47:22;;;;;;;0.98;0.47;;;16.30;92.60;;;;;;5089842;28;20501;-72
2022/06/13 11:49:55;;;;;;;0.88;0.30;;;16.30;93.50;;;;;;5097208;27;20042;-72
2022/06/13 11:55:26;;;;;;;0.17;0.17;;;16.30;91.60;;;;;;5109319;27;20126;-72
2022/06/13 11:57:58;;;;;;;0.43;0.20;;;16.20;93.50;;;;;;5108697;27;20035;-72
2022/06/13 12:00:48;;;;;;;3.30;0.50;;;16.20;93.60;;;;;;5086261;27;20031;-72
2022/06/13 12:03:20;;;;;;;0.45;0.30;;;16.20;93.30;;;;;;5113007;27;20039;-71
2022/06/13 12:05:50;;;;;;;5.07;0.40;;;16.10;93.70;;;;;;5097259;27;20042;-72
2022/06/13 12:08:16;;;;;;;1.30;0.40;;;16.20;94.10;;;;;;5098994;27;20393;-72
2022/06/13 12:10:57;;;;;;;1.70;0.50;;;16.30;94.70;;;;;;5078840;28;20040;-71
2022/06/13 12:13:22;;;;;;;1.05;0.30;;;16.40;94.30;;;;;;5108967;27;20043;-72
2022/06/13 12:15:53;;;;;;;0.55;0.30;;;16.60;95.40;;;;;;5094820;27;22607;-72
2022/06/13 12:18:31;;;;;;;2.03;0.15;;;16.80;94.90;;;;;;5096124;27;20504;-72
2022/06/13 12:21:10;;;;;;;1.20;0.20;;;16.90;92.10;;;;;;5112045;27;20050;-72
2022/06/13 12:23:38;;;;;;;1.80;0.52;;;16.90;90.70;;;;;;5080652;28;20051;-72
2022/06/13 12:26:19;;;;;;;0.55;0.32;;;16.70;92.10;;;;;;5105721;27;20031;-72
2022/06/13 12:28:55;;;;;;;1.40;0.40;;;16.60;91.20;;;;;;5102022;27;20041;-72
2022/06/13 12:31:42;;;;;;;0.93;0.30;;;16.50;92.00;;;;;;5098589;27;20430;-72
2022/06/13 12:34:10;;;;;;;2.75;0.45;;;16.50;91.70;;;;;;5111546;27;20044;-72
2022/06/13 12:37:00;;;;;;;0.40;0.25;;;16.50;93.50;;;;;;5104195;27;20040;-71
2022/06/13 12:39:44;;;;;;;2.08;0.45;;;16.50;92.30;;;;;;5077390;27;20127;-72
2022/06/13 12:42:16;;;;;;;2.45;0.40;;;16.50;93.70;;;;;;5100748;27;20189;-72
2022/06/13 12:45:05;;;;;;;1.13;0.43;;;16.50;93.00;;;;;;5101884;27;20520;-72
2022/06/13 12:47:39;;;;;;;2.22;0.45;;;16.40;90.80;;;;;;5099048;27;20036;-72
2022/06/13 12:50:14;;;;;;;0.80;0.40;;;16.30;93.10;;;;;;5100051;27;20446;-72
2022/06/13 12:52:49;;;;;;;4.65;0.40;;;16.20;92.20;;;;;;5107026;27;20276;-72
2022/06/13 12:55:35;;;;;;;0.85;0.40;;;16.10;92.70;;;;;;5108554;27;20035;-71
2022/06/13 12:58:11;;;;;;;2.28;0.82;;;16.10;92.10;;;;;;5106740;27;20035;-72
2022/06/13 13:00:48;;;;;;;1.65;0.30;;;16.20;91.90;;;;;;5105062;27;20586;-71
2022/06/13 13:03:51;;;;;;;1.15;0.40;;;16.20;92.90;;;;;;5088089;27;20048;-72
2022/06/13 13:06:23;;;;;;;1.38;0.20;;;16.30;92.80;;;;;;5112171;27;20076;-71
2022/06/13 13:09:02;;;;;;;1.58;0.35;;;16.30;93.00;;;;;;5084470;28;20039;-72
2022/06/13 13:11:37;;;;;;;1.30;0.43;;;16.30;92.70;;;;;;5095673;27;20062;-72
2022/06/13 13:14:08;;;;;;;5.43;0.70;;;16.40;93.00;;;;;;5086614;27;20035;-72
2022/06/13 13:16:56;;;;;;;1.75;0.50;;;16.40;92.60;;;;;;5101877;27;20560;-72
2022/06/13 13:19:51;;;;;;;0.93;0.22;;;16.40;91.20;;;;;;5099932;28;20589;-71
2022/06/13 13:22:39;;;;;;;1.30;0.40;;;16.40;92.10;;;;;;5108120;27;20066;-72
2022/06/13 13:25:25;;;;;;;4.03;0.50;;;16.40;91.60;;;;;;5099670;27;20043;-72
2022/06/13 13:28:09;;;;;;;;;;;16.40;91.60;;;;;;5084384;27;20849;-71
2022/06/13 13:30:55;;;;;;;2.22;0.40;;;16.40;90.00;;;;;;5081115;27;20010;-72
2022/06/13 13:33:58;;;;;;;0.98;0.25;;;16.50;92.00;;;;;;5102815;27;20043;-72
2022/06/13 13:36:35;;;;;;;1.77;0.40;;;16.60;89.80;;;;;;5094559;27;20484;-72
2022/06/13 13:39:18;;;;;;;3.50;0.75;;;16.70;92.30;;;;;;5095887;27;20066;-72
2022/06/13 13:41:56;;;;;;;1.17;0.30;;;16.80;91.40;;;;;;5087176;28;20119;-72
2022/06/13 13:44:41;;;;;;;0.82;0.20;;;16.90;91.80;;;;;;5096114;27;20089;-72
2022/06/13 13:47:20;;;;;;;1.02;0.13;;;17.10;90.90;;;;;;5100493;27;20066;-72
2022/06/13 13:49:56;;;;;;;0.30;0.20;;;17.10;89.70;;;;;;5100122;27;20053;-72
2022/06/13 13:52:33;;;;;;;0.17;0.17;;;17.10;89.50;;;;;;5097117;27;20039;-72
2022/06/13 13:55:05;;;;;;;2.38;0.20;;;16.90;90.60;;;;;;5092881;27;20047;-72
2022/06/13 13:57:39;;;;;;;1.42;0.30;;;16.80;91.70;;;;;;5110012;27;20032;-72
2022/06/13 14:00:13;;;;;;;0.40;0.28;;;16.70;92.40;;;;;;5093186;27;20080;-71